Time;durP1;ratioP1;P1;durP2;ratioP2;P2;SDS_P1;SDS_P2;PMS_P1;PMS_P2;Temp;Humidity;BMP_temperature;BMP_pressure;BME280_temperature;BME280_humidity;BME280_pressure;Samples;Min_cycle;Max_cycle;Signal;HPM_P1;HPM_P2
2021/11/24 00:00:04;;;;;;;29.50;12.93;;;;;;;;;;4975100;28;20027;-88
2021/11/24 00:02:30;;;;;;;30.23;11.35;;;;;;;;;;4974999;28;20498;-87
2021/11/24 00:04:56;;;;;;;26.05;11.13;;;;;;;;;;4974565;28;20117;-84
2021/11/24 00:07:23;;;;;;;25.73;11.10;;;;;;;;;;4974908;28;20032;-87
2021/11/24 00:09:49;;;;;;;24.85;10.70;;;;;;;;;;4976516;28;20038;-89
2021/11/24 00:12:15;;;;;;;27.38;9.13;;;;;;;;;;4974995;28;20038;-83
2021/11/24 00:14:42;;;;;;;21.05;8.93;;;;;;;;;;4973944;28;20027;-83
2021/11/24 00:17:08;;;;;;;19.88;9.63;;;;;;;;;;4973903;28;20178;-85
2021/11/24 00:19:34;;;;;;;20.30;8.35;;;;;;;;;;4975571;28;20077;-84
2021/11/24 00:22:00;;;;;;;17.65;7.45;;;;;;;;;;4974496;28;20031;-84
2021/11/24 00:24:26;;;;;;;18.33;8.07;;;;;;;;;;4974608;28;20022;-88
2021/11/24 00:26:53;;;;;;;13.32;7.35;;;;;;;;;;4974721;28;20031;-88
2021/11/24 00:29:19;;;;;;;10.60;4.72;;;;;;;;;;4974538;28;20042;-88
2021/11/24 00:31:45;;;;;;;13.85;4.45;;;;;;;;;;4974693;28;20026;-87
2021/11/24 00:34:12;;;;;;;8.10;4.13;;;;;;;;;;5010805;28;20078;-87
2021/11/24 00:36:38;;;;;;;13.80;4.50;;;;;;;;;;4997381;28;20041;-89
2021/11/24 00:39:05;;;;;;;11.85;4.50;;;;;;;;;;4997722;28;20022;-87
2021/11/24 00:41:31;;;;;;;10.65;5.05;;;;;;;;;;5015446;28;20026;-85
2021/11/24 00:43:57;;;;;;;11.95;3.75;;;;;;;;;;4998762;28;20026;-86
2021/11/24 00:46:23;;;;;;;11.05;4.53;;;;;;;;;;5026601;28;20026;-84
2021/11/24 00:48:50;;;;;;;9.77;4.38;;;;;;;;;;5009067;28;20062;-90
2021/11/24 00:51:16;;;;;;;8.40;3.85;;;;;;;;;;5010391;28;20025;-86
2021/11/24 00:53:42;;;;;;;16.13;4.45;;;;;;;;;;5021286;28;20036;-87
2021/11/24 00:56:09;;;;;;;8.52;4.55;;;;;;;;;;5006518;28;20092;-85
2021/11/24 00:58:35;;;;;;;10.32;4.35;;;;;;;;;;5015581;28;20117;-87
2021/11/24 01:01:01;;;;;;;8.20;3.60;;;;;;;;;;4997023;28;20079;-88
2021/11/24 01:03:27;;;;;;;8.68;4.22;;;;;;;;;;5000047;28;20033;-85
2021/11/24 01:05:54;;;;;;;14.00;6.40;;;;;;;;;;4999761;28;20026;-87
2021/11/24 01:08:20;;;;;;;18.92;8.25;;;;;;;;;;5018350;28;20026;-87
2021/11/24 01:10:47;;;;;;;21.17;8.15;;;;;;;;;;5017413;28;20032;-87
2021/11/24 01:13:14;;;;;;;23.17;9.63;;;;;;;;;;5000403;28;20449;-87
2021/11/24 01:15:40;;;;;;;24.25;9.18;;;;;;;;;;5017008;28;20084;-83
2021/11/24 01:18:07;;;;;;;15.90;8.15;;;;;;;;;;5017087;28;20026;-87
2021/11/24 01:20:33;;;;;;;19.80;8.68;;;;;;;;;;5000012;28;20030;-87
2021/11/24 01:23:00;;;;;;;17.25;8.10;;;;;;;;;;5018301;28;20431;-89
2021/11/24 01:25:26;;;;;;;22.00;8.60;;;;;;;;;;5018312;28;20061;-88
2021/11/24 01:27:52;;;;;;;17.80;7.82;;;;;;;;;;5001016;28;20056;-84
2021/11/24 01:30:18;;;;;;;17.95;7.80;;;;;;;;;;5017748;28;20037;-85
2021/11/24 01:32:45;;;;;;;20.50;8.70;;;;;;;;;;4990546;28;20050;-90
2021/11/24 01:35:11;;;;;;;21.85;9.77;;;;;;;;;;4977331;28;20046;-86
2021/11/24 01:37:38;;;;;;;22.27;8.13;;;;;;;;;;4976907;28;20023;-88
2021/11/24 01:40:05;;;;;;;17.77;8.75;;;;;;;;;;4978252;28;20042;-87
2021/11/24 01:42:33;;;;;;;20.50;7.32;;;;;;;;;;4977061;28;20029;-82
2021/11/24 01:45:00;;;;;;;22.73;8.32;;;;;;;;;;4976718;28;20034;-87
2021/11/24 01:47:26;;;;;;;19.75;7.72;;;;;;;;;;4992347;28;20467;-86
2021/11/24 01:49:54;;;;;;;22.33;8.80;;;;;;;;;;4977876;28;20030;-85
2021/11/24 01:52:20;;;;;;;17.52;6.97;;;;;;;;;;4977827;28;20130;-88
2021/11/24 01:54:47;;;;;;;12.45;5.00;;;;;;;;;;4977901;28;20062;-90
2021/11/24 01:57:16;;;;;;;10.38;5.90;;;;;;;;;;4976504;28;20031;-85
2021/11/24 01:59:42;;;;;;;11.52;5.25;;;;;;;;;;4976646;28;20030;-84
2021/11/24 02:02:09;;;;;;;19.40;6.15;;;;;;;;;;4976404;28;20030;-85
2021/11/24 02:04:35;;;;;;;23.70;6.60;;;;;;;;;;4976657;28;20027;-84
2021/11/24 02:07:01;;;;;;;12.85;5.07;;;;;;;;;;4976759;28;20121;-84
2021/11/24 02:09:27;;;;;;;14.73;5.90;;;;;;;;;;4977704;28;20058;-87
2021/11/24 02:11:56;;;;;;;13.23;5.22;;;;;;;;;;4976616;28;20226;-88
2021/11/24 02:14:22;;;;;;;11.65;4.38;;;;;;;;;;4976458;28;20541;-85
2021/11/24 02:16:50;;;;;;;13.20;5.00;;;;;;;;;;4976145;28;20027;-84
2021/11/24 02:19:17;;;;;;;10.75;5.80;;;;;;;;;;4975867;28;20368;-84
2021/11/24 02:21:51;;;;;;;14.43;5.85;;;;;;;;;;4975721;28;20022;-83
2021/11/24 02:24:18;;;;;;;16.42;6.57;;;;;;;;;;4976642;28;20037;-88
2021/11/24 02:26:44;;;;;;;14.93;5.60;;;;;;;;;;4976657;28;20478;-86
2021/11/24 02:29:11;;;;;;;18.23;6.63;;;;;;;;;;4977550;28;20030;-87
2021/11/24 02:31:37;;;;;;;15.57;6.20;;;;;;;;;;4976206;28;20480;-88
2021/11/24 02:34:04;;;;;;;18.00;7.25;;;;;;;;;;4976205;28;20054;-87
2021/11/24 02:36:31;;;;;;;14.63;5.38;;;;;;;;;;4977420;28;20059;-88
2021/11/24 02:38:59;;;;;;;15.63;5.95;;;;;;;;;;4976223;28;20109;-84
2021/11/24 02:41:26;;;;;;;13.77;5.93;;;;;;;;;;4977994;28;20031;-85
2021/11/24 02:43:53;;;;;;;10.30;4.80;;;;;;;;;;4977268;28;20065;-86
2021/11/24 02:46:19;;;;;;;13.43;5.90;;;;;;;;;;4975808;28;20031;-85
2021/11/24 02:48:45;;;;;;;8.82;4.03;;;;;;;;;;4976339;28;20030;-88
2021/11/24 02:51:12;;;;;;;16.02;4.78;;;;;;;;;;4978125;28;20053;-88
2021/11/24 02:53:38;;;;;;;21.52;6.80;;;;;;;;;;4976799;28;20102;-87
2021/11/24 02:56:04;;;;;;;12.40;6.18;;;;;;;;;;4990579;28;20027;-84
2021/11/24 02:58:31;;;;;;;13.55;5.30;;;;;;;;;;4996171;28;20015;-86
2021/11/24 03:01:00;;;;;;;14.90;4.90;;;;;;;;;;4997709;28;20066;-83
2021/11/24 03:03:26;;;;;;;19.00;7.38;;;;;;;;;;4991731;28;20015;-84
2021/11/24 03:05:52;;;;;;;22.02;7.25;;;;;;;;;;4996310;28;20041;-85
2021/11/24 03:08:18;;;;;;;21.80;8.57;;;;;;;;;;4994779;28;20010;-85
2021/11/24 03:10:44;;;;;;;15.90;6.82;;;;;;;;;;5000254;28;20035;-85
2021/11/24 03:13:11;;;;;;;15.77;6.68;;;;;;;;;;4983375;28;20065;-84
2021/11/24 03:15:37;;;;;;;20.55;7.28;;;;;;;;;;4979332;28;20023;-87
2021/11/24 03:18:03;;;;;;;20.08;6.35;;;;;;;;;;4979600;28;20102;-85
2021/11/24 03:20:30;;;;;;;20.60;6.50;;;;;;;;;;4976501;28;20023;-87
2021/11/24 03:22:57;;;;;;;13.80;6.10;;;;;;;;;;4976228;28;20038;-84
2021/11/24 03:25:24;;;;;;;18.45;6.20;;;;;;;;;;4974969;28;20045;-86
2021/11/24 03:27:51;;;;;;;10.57;5.00;;;;;;;;;;4974995;28;20117;-84
2021/11/24 03:30:19;;;;;;;9.18;4.65;;;;;;;;;;4975246;28;20031;-88
2021/11/24 03:32:46;;;;;;;9.50;4.60;;;;;;;;;;4988455;28;20044;-88
2021/11/24 03:35:13;;;;;;;10.95;4.75;;;;;;;;;;5014965;28;20030;-89
2021/11/24 03:37:39;;;;;;;11.27;4.63;;;;;;;;;;4997800;28;20037;-88
2021/11/24 03:40:08;;;;;;;24.38;4.20;;;;;;;;;;4997673;28;20034;-89
2021/11/24 03:42:35;;;;;;;14.60;6.25;;;;;;;;;;4997639;28;20069;-87
2021/11/24 03:45:02;;;;;;;14.02;5.00;;;;;;;;;;5015493;28;20029;-84
2021/11/24 03:47:28;;;;;;;12.10;4.20;;;;;;;;;;4997803;28;20176;-87
2021/11/24 03:49:54;;;;;;;11.10;3.78;;;;;;;;;;5014933;28;20390;-87
2021/11/24 03:52:21;;;;;;;9.95;4.18;;;;;;;;;;4996539;28;20092;-84
2021/11/24 03:54:47;;;;;;;8.02;2.83;;;;;;;;;;4997581;28;20064;-87
2021/11/24 03:57:13;;;;;;;6.53;3.50;;;;;;;;;;5014161;28;20028;-88
2021/11/24 03:59:39;;;;;;;8.75;4.63;;;;;;;;;;5014457;28;20029;-85
2021/11/24 04:02:05;;;;;;;9.68;3.53;;;;;;;;;;4997210;28;20081;-84
2021/11/24 04:04:31;;;;;;;9.30;4.05;;;;;;;;;;4997637;28;20108;-84
2021/11/24 04:06:58;;;;;;;8.00;4.10;;;;;;;;;;4997631;28;20038;-83
2021/11/24 04:09:25;;;;;;;8.60;4.03;;;;;;;;;;5015749;28;20033;-87
2021/11/24 04:11:51;;;;;;;9.80;4.32;;;;;;;;;;4997715;28;20089;-90
2021/11/24 04:14:17;;;;;;;8.40;3.72;;;;;;;;;;4997602;28;20030;-87
2021/11/24 04:16:44;;;;;;;11.52;3.88;;;;;;;;;;4997572;28;20060;-87
2021/11/24 04:19:10;;;;;;;8.85;3.65;;;;;;;;;;5014501;28;20088;-84
2021/11/24 04:21:36;;;;;;;12.75;3.72;;;;;;;;;;4997164;28;20426;-87
2021/11/24 04:24:03;;;;;;;8.63;3.40;;;;;;;;;;4997521;28;20026;-86
2021/11/24 04:26:29;;;;;;;13.35;4.40;;;;;;;;;;5015031;28;20045;-86
2021/11/24 04:28:55;;;;;;;12.10;4.47;;;;;;;;;;4996587;28;20447;-87
2021/11/24 04:31:22;;;;;;;8.40;3.95;;;;;;;;;;4997037;28;20467;-85
2021/11/24 04:33:48;;;;;;;11.60;4.82;;;;;;;;;;4979338;28;20158;-86
2021/11/24 04:36:14;;;;;;;9.88;4.07;;;;;;;;;;4974666;28;20035;-88
2021/11/24 04:38:41;;;;;;;10.13;4.25;;;;;;;;;;4978923;28;20029;-85
2021/11/24 04:41:07;;;;;;;13.13;5.22;;;;;;;;;;4978197;28;20027;-84
2021/11/24 04:43:38;;;;;;;13.55;4.00;;;;;;;;;;4978355;28;20081;-90
2021/11/24 04:46:05;;;;;;;9.30;3.58;;;;;;;;;;4978171;28;20117;-87
2021/11/24 04:48:31;;;;;;;13.73;6.07;;;;;;;;;;4978725;28;20019;-86
2021/11/24 04:50:58;;;;;;;20.45;6.15;;;;;;;;;;4980715;28;20372;-86
2021/11/24 04:53:25;;;;;;;10.50;5.15;;;;;;;;;;4979320;28;20031;-85
2021/11/24 04:55:51;;;;;;;12.50;5.07;;;;;;;;;;4979180;28;20061;-86
2021/11/24 04:58:18;;;;;;;18.45;6.20;;;;;;;;;;4978983;28;20027;-86
2021/11/24 05:00:44;;;;;;;20.40;8.70;;;;;;;;;;4979823;28;20554;-89
2021/11/24 05:03:10;;;;;;;14.60;7.00;;;;;;;;;;4979560;28;20094;-85
2021/11/24 05:05:37;;;;;;;16.38;5.68;;;;;;;;;;4978916;28;20042;-87
2021/11/24 05:08:03;;;;;;;12.13;6.53;;;;;;;;;;4979713;28;20522;-84
2021/11/24 05:10:29;;;;;;;11.88;5.63;;;;;;;;;;4979115;28;20035;-87
2021/11/24 05:12:56;;;;;;;15.10;6.10;;;;;;;;;;4979076;28;20076;-89
2021/11/24 05:15:26;;;;;;;15.07;7.05;;;;;;;;;;4979311;28;20110;-83
2021/11/24 05:17:59;;;;;;;12.13;6.25;;;;;;;;;;4977416;28;20019;-88
2021/11/24 05:20:28;;;;;;;13.65;5.03;;;;;;;;;;4979293;28;20019;-86
2021/11/24 05:22:58;;;;;;;12.15;5.65;;;;;;;;;;4977089;28;20047;-86
2021/11/24 05:25:24;;;;;;;11.63;5.60;;;;;;;;;;4989114;28;20043;-82
2021/11/24 05:27:50;;;;;;;10.60;4.25;;;;;;;;;;4998094;28;20015;-84
2021/11/24 05:30:16;;;;;;;9.35;4.57;;;;;;;;;;4978000;28;20030;-85
2021/11/24 05:32:42;;;;;;;9.90;4.65;;;;;;;;;;4976778;28;20101;-86
2021/11/24 05:35:08;;;;;;;12.98;4.68;;;;;;;;;;4976245;28;20031;-85
2021/11/24 05:37:35;;;;;;;8.68;4.53;;;;;;;;;;4978307;28;20031;-86
2021/11/24 05:40:01;;;;;;;12.98;5.45;;;;;;;;;;4976789;28;20118;-84
2021/11/24 05:42:27;;;;;;;10.40;5.18;;;;;;;;;;4978684;28;20082;-89
2021/11/24 05:45:03;;;;;;;14.43;4.95;;;;;;;;;;4978289;28;20031;-88
2021/11/24 05:50:14;;;;;;;11.27;4.57;;;;;;;;;;4978900;28;20037;-88
2021/11/24 05:52:41;;;;;;;9.48;4.25;;;;;;;;;;4977481;28;20121;-87
2021/11/24 05:55:07;;;;;;;12.25;6.43;;;;;;;;;;4977319;28;20566;-88
2021/11/24 05:57:33;;;;;;;14.43;6.15;;;;;;;;;;4976783;28;20432;-89
2021/11/24 05:59:59;;;;;;;11.63;6.00;;;;;;;;;;4977499;28;20073;-92
2021/11/24 06:02:26;;;;;;;12.25;4.50;;;;;;;;;;4977558;28;20051;-87
2021/11/24 06:04:52;;;;;;;13.50;4.70;;;;;;;;;;4976943;28;20035;-91
2021/11/24 06:07:18;;;;;;;15.55;5.72;;;;;;;;;;4978065;28;20031;-91
2021/11/24 06:09:44;;;;;;;15.45;6.00;;;;;;;;;;4958287;28;20031;-91
2021/11/24 06:12:11;;;;;;;8.40;4.80;;;;;;;;;;4958517;29;20019;-92
2021/11/24 06:14:37;;;;;;;6.18;3.92;;;;;;;;;;4958376;28;20034;-88
2021/11/24 06:17:03;;;;;;;9.05;4.78;;;;;;;;;;4958069;28;20039;-88
2021/11/24 06:19:29;;;;;;;11.95;4.85;;;;;;;;;;4958709;29;20028;-88
2021/11/24 06:21:55;;;;;;;11.07;4.57;;;;;;;;;;4958494;29;20027;-87
2021/11/24 06:24:21;;;;;;;18.48;4.32;;;;;;;;;;4958248;29;20031;-87
2021/11/24 06:26:47;;;;;;;13.70;4.45;;;;;;;;;;4958156;29;20042;-87
2021/11/24 06:29:13;;;;;;;12.13;4.93;;;;;;;;;;4959524;28;20035;-87
2021/11/24 06:31:39;;;;;;;11.75;5.10;;;;;;;;;;4957015;29;20031;-87
2021/11/24 06:34:06;;;;;;;9.15;4.43;;;;;;;;;;4973637;28;20046;-87
2021/11/24 06:36:32;;;;;;;16.00;5.57;;;;;;;;;;4976768;28;20057;-88
2021/11/24 06:38:58;;;;;;;10.35;4.88;;;;;;;;;;4977142;28;20031;-86
2021/11/24 06:41:24;;;;;;;9.55;5.13;;;;;;;;;;4981660;28;20037;-86
2021/11/24 06:43:50;;;;;;;8.68;4.28;;;;;;;;;;4987944;28;20419;-85
2021/11/24 06:46:16;;;;;;;11.05;4.28;;;;;;;;;;4983640;28;20042;-84
2021/11/24 06:48:42;;;;;;;13.40;5.18;;;;;;;;;;4976404;28;20027;-85
2021/11/24 06:51:09;;;;;;;10.18;5.22;;;;;;;;;;4975039;28;20433;-84
2021/11/24 06:53:35;;;;;;;12.63;5.07;;;;;;;;;;4974977;28;20050;-84
2021/11/24 06:56:01;;;;;;;14.05;5.57;;;;;;;;;;4976046;28;20035;-85
2021/11/24 06:58:27;;;;;;;11.63;5.30;;;;;;;;;;4974759;28;20023;-84
2021/11/24 07:00:54;;;;;;;12.63;5.25;;;;;;;;;;4973922;28;20407;-84
2021/11/24 07:03:20;;;;;;;13.38;6.80;;;;;;;;;;4971264;28;20106;-81
2021/11/24 07:05:46;;;;;;;17.25;6.68;;;;;;;;;;4955142;28;20090;-84
2021/11/24 07:08:12;;;;;;;15.48;6.82;;;;;;;;;;4955063;28;20027;-84
2021/11/24 07:10:39;;;;;;;13.35;6.57;;;;;;;;;;4955014;28;20023;-84
2021/11/24 07:13:05;;;;;;;14.75;6.32;;;;;;;;;;4955982;28;20042;-83
2021/11/24 07:15:32;;;;;;;13.60;6.60;;;;;;;;;;4954986;28;20027;-82
2021/11/24 07:17:59;;;;;;;12.70;6.40;;;;;;;;;;4956139;28;20027;-82
2021/11/24 07:20:25;;;;;;;14.00;7.30;;;;;;;;;;4955167;28;20062;-82
2021/11/24 07:22:51;;;;;;;20.85;7.22;;;;;;;;;;4955476;28;20473;-82
2021/11/24 07:25:18;;;;;;;16.42;7.25;;;;;;;;;;4954943;28;20035;-82
2021/11/24 07:27:45;;;;;;;11.90;6.30;;;;;;;;;;4955044;28;20035;-83
2021/11/24 07:30:11;;;;;;;14.15;6.70;;;;;;;;;;4954916;28;20031;-83
2021/11/24 07:32:37;;;;;;;13.40;6.80;;;;;;;;;;4954823;28;20049;-88
2021/11/24 07:35:04;;;;;;;15.23;6.25;;;;;;;;;;4955460;29;20058;-84
2021/11/24 07:37:31;;;;;;;16.15;7.45;;;;;;;;;;4955593;28;20034;-87
2021/11/24 07:39:57;;;;;;;16.23;8.10;;;;;;;;;;4954772;28;20039;-88
2021/11/24 07:42:23;;;;;;;16.23;7.80;;;;;;;;;;4955004;28;20034;-85
2021/11/24 07:44:49;;;;;;;17.92;9.05;;;;;;;;;;4954419;29;20122;-83
2021/11/24 07:47:15;;;;;;;14.40;6.90;;;;;;;;;;4955086;29;20480;-84
2021/11/24 07:49:42;;;;;;;16.77;6.63;;;;;;;;;;4968530;28;20042;-84
2021/11/24 07:52:08;;;;;;;12.82;6.50;;;;;;;;;;4979305;28;20031;-83
2021/11/24 07:54:34;;;;;;;14.18;5.53;;;;;;;;;;4959830;29;20038;-86
2021/11/24 07:57:00;;;;;;;12.60;5.18;;;;;;;;;;4956232;28;20030;-85
2021/11/24 07:59:26;;;;;;;19.23;8.43;;;;;;;;;;4955006;28;20027;-88
2021/11/24 08:01:52;;;;;;;13.70;6.65;;;;;;;;;;4955051;28;20040;-88
2021/11/24 08:04:18;;;;;;;19.45;7.25;;;;;;;;;;4951702;29;20034;-91
2021/11/24 08:06:44;;;;;;;13.07;6.53;;;;;;;;;;4936189;29;20079;-88
2021/11/24 08:09:11;;;;;;;22.90;7.35;;;;;;;;;;4935824;29;20032;-87
2021/11/24 08:11:37;;;;;;;15.15;7.88;;;;;;;;;;4937951;29;20630;-87
2021/11/24 08:14:05;;;;;;;15.38;7.60;;;;;;;;;;4939754;29;20038;-86
2021/11/24 08:16:31;;;;;;;12.70;7.03;;;;;;;;;;4938816;29;20110;-88
2021/11/24 08:18:57;;;;;;;13.25;6.78;;;;;;;;;;4941010;29;20059;-87
2021/11/24 08:21:23;;;;;;;13.20;6.45;;;;;;;;;;4939773;29;20024;-88
2021/11/24 08:23:50;;;;;;;11.80;6.55;;;;;;;;;;4939610;29;20499;-88
2021/11/24 08:26:16;;;;;;;16.27;7.00;;;;;;;;;;4939431;29;20031;-88
2021/11/24 08:28:43;;;;;;;17.45;7.32;;;;;;;;;;4939486;29;20024;-87
2021/11/24 08:31:09;;;;;;;25.70;9.65;;;;;;;;;;4939551;29;20461;-89
2021/11/24 08:33:35;;;;;;;22.67;7.82;;;;;;;;;;4964038;28;20051;-89
2021/11/24 08:36:01;;;;;;;16.77;7.80;;;;;;;;;;4977946;28;20043;-88
2021/11/24 08:38:27;;;;;;;18.02;8.65;;;;;;;;;;4979002;28;20028;-89
2021/11/24 08:40:54;;;;;;;16.05;8.02;;;;;;;;;;4977735;28;20029;-88
2021/11/24 08:43:20;;;;;;;19.60;8.85;;;;;;;;;;4977690;28;20033;-88
2021/11/24 08:45:46;;;;;;;18.30;8.38;;;;;;;;;;4978054;28;20058;-89
2021/11/24 08:48:12;;;;;;;9.50;6.03;;;;;;;;;;4977655;28;20506;-89
2021/11/24 08:50:38;;;;;;;12.23;7.32;;;;;;;;;;4977613;28;20397;-87
2021/11/24 08:53:05;;;;;;;14.00;7.60;;;;;;;;;;4977306;28;20026;-87
2021/11/24 08:55:31;;;;;;;13.57;7.22;;;;;;;;;;4979818;28;20045;-87
2021/11/24 08:57:57;;;;;;;12.65;7.20;;;;;;;;;;4977453;28;20053;-86
2021/11/24 09:00:24;;;;;;;12.25;6.47;;;;;;;;;;4977363;28;20098;-86
2021/11/24 09:02:50;;;;;;;8.40;5.00;;;;;;;;;;4977333;28;20030;-88
2021/11/24 09:05:18;;;;;;;13.57;6.50;;;;;;;;;;4978661;28;20034;-86
2021/11/24 09:07:46;;;;;;;25.40;11.00;;;;;;;;;;4961312;28;20047;-87
2021/11/24 09:10:13;;;;;;;18.23;7.00;;;;;;;;;;4961328;28;20023;-87
2021/11/24 09:12:39;;;;;;;8.00;4.15;;;;;;;;;;4961169;28;20034;-86
2021/11/24 09:15:06;;;;;;;8.38;4.05;;;;;;;;;;4961149;28;20407;-86
2021/11/24 09:17:35;;;;;;;7.72;3.78;;;;;;;;;;4960196;28;20085;-86
2021/11/24 09:20:01;;;;;;;14.07;4.10;;;;;;;;;;4969417;28;20047;-86
2021/11/24 09:22:27;;;;;;;7.15;4.28;;;;;;;;;;4986800;28;20486;-86
2021/11/24 09:24:56;;;;;;;7.95;5.05;;;;;;;;;;4992026;28;20398;-86
2021/11/24 09:27:30;;;;;;;10.80;6.45;;;;;;;;;;5013467;28;20105;-85
2021/11/24 09:29:57;;;;;;;13.52;7.18;;;;;;;;;;4986813;28;20029;-86
2021/11/24 09:32:24;;;;;;;10.38;5.90;;;;;;;;;;5011623;28;20046;-86
2021/11/24 09:34:50;;;;;;;10.20;5.90;;;;;;;;;;4979606;28;20038;-86
2021/11/24 09:37:16;;;;;;;13.60;5.75;;;;;;;;;;5012724;28;20109;-87
2021/11/24 09:39:42;;;;;;;10.00;6.13;;;;;;;;;;5012746;28;20121;-86
2021/11/24 09:42:09;;;;;;;11.60;5.93;;;;;;;;;;5012480;28;20034;-86
2021/11/24 09:44:35;;;;;;;9.82;5.85;;;;;;;;;;5012463;28;20026;-86
2021/11/24 09:47:01;;;;;;;12.20;6.00;;;;;;;;;;5012340;28;20030;-86
2021/11/24 09:49:27;;;;;;;11.30;7.05;;;;;;;;;;4997351;28;20415;-86
2021/11/24 09:51:54;;;;;;;12.23;6.53;;;;;;;;;;5011783;28;20026;-86
2021/11/24 09:54:22;;;;;;;9.57;6.00;;;;;;;;;;5012825;28;20033;-86
2021/11/24 09:56:48;;;;;;;8.85;5.85;;;;;;;;;;5012191;28;20073;-86
2021/11/24 09:59:14;;;;;;;10.35;5.95;;;;;;;;;;4998285;28;20027;-87
2021/11/24 10:01:41;;;;;;;10.85;5.80;;;;;;;;;;5012360;28;20524;-86
2021/11/24 10:04:08;;;;;;;8.77;5.70;;;;;;;;;;5003514;28;20100;-87
2021/11/24 10:06:35;;;;;;;10.65;6.18;;;;;;;;;;4980408;28;20038;-87
2021/11/24 10:09:04;;;;;;;10.48;6.22;;;;;;;;;;4980368;28;20391;-88
2021/11/24 10:11:31;;;;;;;10.00;6.35;;;;;;;;;;4981217;28;20117;-86
2021/11/24 10:13:57;;;;;;;12.60;5.90;;;;;;;;;;4996823;28;20029;-86
2021/11/24 10:16:27;;;;;;;11.85;6.25;;;;;;;;;;4979392;28;20041;-86
2021/11/24 10:19:08;;;;;;;13.77;5.45;;;;;;;;;;4979670;28;20442;-86
2021/11/24 10:21:34;;;;;;;9.38;5.93;;;;;;;;;;4979338;28;20062;-86
2021/11/24 10:24:05;;;;;;;12.50;7.10;;;;;;;;;;4980030;28;20023;-86
2021/11/24 10:26:33;;;;;;;8.75;5.70;;;;;;;;;;4986239;28;20023;-85
2021/11/24 10:29:12;;;;;;;11.85;6.15;;;;;;;;;;4992428;28;20138;-86
2021/11/24 10:31:43;;;;;;;10.25;5.78;;;;;;;;;;4978606;28;20042;-86
2021/11/24 10:34:14;;;;;;;12.00;6.07;;;;;;;;;;4958137;28;20055;-86
2021/11/24 10:36:49;;;;;;;13.80;6.82;;;;;;;;;;4955905;29;20493;-86
2021/11/24 10:39:15;;;;;;;11.82;6.18;;;;;;;;;;4957668;29;20034;-88
2021/11/24 10:41:41;;;;;;;10.00;5.70;;;;;;;;;;4957883;29;20023;-86
2021/11/24 10:44:08;;;;;;;13.82;7.07;;;;;;;;;;4958347;29;20179;-92
2021/11/24 10:46:36;;;;;;;16.63;7.00;;;;;;;;;;4957201;29;20042;-88
2021/11/24 10:49:09;;;;;;;13.45;6.20;;;;;;;;;;4956470;29;20035;-86
2021/11/24 10:51:37;;;;;;;11.63;6.32;;;;;;;;;;4956011;29;20027;-87
2021/11/24 10:54:04;;;;;;;13.50;6.78;;;;;;;;;;4955924;29;20015;-86
2021/11/24 10:56:30;;;;;;;12.50;6.80;;;;;;;;;;4959875;29;20471;-87
2021/11/24 10:59:17;;;;;;;12.65;6.43;;;;;;;;;;4962647;28;20037;-89
2021/11/24 11:01:44;;;;;;;16.48;7.85;;;;;;;;;;4975285;28;20114;-83
2021/11/24 11:04:10;;;;;;;13.23;6.18;;;;;;;;;;4960932;28;20035;-85
2021/11/24 11:06:38;;;;;;;11.70;6.65;;;;;;;;;;4939213;29;20101;-86
2021/11/24 11:09:07;;;;;;;9.90;5.88;;;;;;;;;;4938129;29;20070;-84
2021/11/24 11:11:35;;;;;;;12.63;6.10;;;;;;;;;;4936656;29;20031;-85
2021/11/24 11:14:15;;;;;;;17.60;6.80;;;;;;;;;;4936333;29;20035;-93
2021/11/24 11:16:53;;;;;;;10.77;6.07;;;;;;;;;;4936087;29;20419;-86
2021/11/24 11:19:39;;;;;;;10.48;6.50;;;;;;;;;;4945491;29;20024;-86
2021/11/24 11:22:26;;;;;;;12.50;7.10;;;;;;;;;;4943335;29;20120;-86
2021/11/24 11:24:52;;;;;;;13.05;7.00;;;;;;;;;;4947603;28;20038;-85
2021/11/24 11:27:18;;;;;;;10.65;6.07;;;;;;;;;;4938441;29;20073;-87
2021/11/24 11:29:46;;;;;;;10.45;6.50;;;;;;;;;;4947660;28;20039;-85
2021/11/24 11:32:14;;;;;;;11.05;5.82;;;;;;;;;;4943986;28;20091;-84
2021/11/24 11:34:42;;;;;;;10.60;6.47;;;;;;;;;;4961561;28;20038;-87
2021/11/24 11:37:10;;;;;;;17.25;6.53;;;;;;;;;;4958792;28;20140;-87
2021/11/24 11:39:36;;;;;;;12.43;6.60;;;;;;;;;;4975744;28;20117;-88
2021/11/24 11:42:07;;;;;;;10.75;6.75;;;;;;;;;;4958624;28;20452;-86
2021/11/24 11:44:34;;;;;;;11.20;6.00;;;;;;;;;;4958980;28;20022;-86
2021/11/24 11:47:00;;;;;;;11.88;6.18;;;;;;;;;;4958237;28;20027;-86
2021/11/24 11:49:29;;;;;;;11.35;5.93;;;;;;;;;;4959164;28;20041;-85
2021/11/24 11:52:03;;;;;;;16.40;5.70;;;;;;;;;;4957642;28;20407;-85
2021/11/24 11:54:30;;;;;;;15.20;5.85;;;;;;;;;;4958602;28;20114;-85
2021/11/24 11:57:01;;;;;;;8.32;5.35;;;;;;;;;;4975406;28;20065;-85
2021/11/24 11:59:29;;;;;;;9.35;5.07;;;;;;;;;;4958428;28;20078;-85
2021/11/24 12:02:04;;;;;;;9.68;5.50;;;;;;;;;;4958164;28;20069;-86
2021/11/24 12:04:41;;;;;;;13.80;5.72;;;;;;;;;;4958238;28;20372;-86
2021/11/24 12:07:08;;;;;;;12.93;6.60;;;;;;;;;;4958079;28;20113;-86
2021/11/24 12:09:47;;;;;;;10.65;6.40;;;;;;;;;;4957515;28;20030;-87
2021/11/24 12:12:19;;;;;;;9.13;5.15;;;;;;;;;;4957492;28;20034;-87
2021/11/24 12:15:03;;;;;;;13.07;5.97;;;;;;;;;;4957489;28;20377;-87
2021/11/24 12:17:36;;;;;;;10.35;5.82;;;;;;;;;;4974977;28;20023;-87
2021/11/24 12:20:14;;;;;;;9.13;5.75;;;;;;;;;;4958603;28;20447;-88
2021/11/24 12:22:56;;;;;;;11.80;6.03;;;;;;;;;;4957840;28;20085;-84
2021/11/24 12:25:26;;;;;;;8.63;5.03;;;;;;;;;;4975946;28;20030;-87
2021/11/24 12:30:57;;;;;;;13.20;6.28;;;;;;;;;;4976393;28;20129;-86
2021/11/24 12:33:42;;;;;;;14.18;6.47;;;;;;;;;;4953663;29;20512;-86
2021/11/24 12:36:11;;;;;;;11.65;6.90;;;;;;;;;;4951939;29;20067;-83
2021/11/24 12:38:37;;;;;;;14.93;9.75;;;;;;;;;;4955386;28;20039;-83
2021/11/24 12:41:05;;;;;;;12.00;6.32;;;;;;;;;;4953967;29;20027;-84
2021/11/24 12:43:32;;;;;;;10.05;6.20;;;;;;;;;;4954065;29;20031;-84
2021/11/24 12:46:00;;;;;;;12.07;5.35;;;;;;;;;;4954312;29;20060;-85
2021/11/24 12:48:33;;;;;;;8.68;4.85;;;;;;;;;;4955342;28;20027;-83
2021/11/24 12:51:00;;;;;;;12.63;4.97;;;;;;;;;;4955425;28;20027;-81
2021/11/24 12:53:26;;;;;;;14.52;4.70;;;;;;;;;;4955997;28;20042;-83
2021/11/24 12:56:04;;;;;;;9.18;5.05;;;;;;;;;;4955812;28;20090;-83
2021/11/24 12:58:30;;;;;;;12.25;6.07;;;;;;;;;;4971881;28;20027;-84
2021/11/24 13:00:56;;;;;;;9.82;5.47;;;;;;;;;;4980350;28;20059;-83
2021/11/24 13:03:26;;;;;;;9.63;5.25;;;;;;;;;;4962626;28;20407;-81
2021/11/24 13:05:56;;;;;;;11.57;4.63;;;;;;;;;;4958285;28;20024;-85
2021/11/24 13:08:23;;;;;;;7.70;4.13;;;;;;;;;;4957550;29;20090;-84
2021/11/24 13:11:09;;;;;;;9.55;3.35;;;;;;;;;;4957382;29;20384;-82
2021/11/24 13:13:35;;;;;;;7.38;3.72;;;;;;;;;;4958382;29;20030;-82
2021/11/24 13:16:01;;;;;;;10.65;4.50;;;;;;;;;;4958894;28;20039;-83
2021/11/24 13:18:28;;;;;;;16.00;4.30;;;;;;;;;;4959450;29;20057;-83
2021/11/24 13:20:54;;;;;;;6.05;3.63;;;;;;;;;;4959101;28;20058;-82
2021/11/24 13:23:21;;;;;;;8.07;4.07;;;;;;;;;;4957532;28;20027;-82
2021/11/24 13:25:47;;;;;;;10.10;4.43;;;;;;;;;;4959113;28;20031;-84
2021/11/24 13:28:17;;;;;;;7.70;4.30;;;;;;;;;;4957414;29;20023;-84
2021/11/24 13:30:43;;;;;;;11.15;5.22;;;;;;;;;;4956300;29;20039;-84
2021/11/24 13:33:12;;;;;;;11.68;5.18;;;;;;;;;;4969508;28;20395;-85
2021/11/24 13:35:41;;;;;;;11.10;5.70;;;;;;;;;;4980201;28;20085;-86
2021/11/24 13:38:07;;;;;;;21.60;7.47;;;;;;;;;;4980327;28;20033;-85
2021/11/24 13:40:40;;;;;;;8.23;4.32;;;;;;;;;;4980271;28;20026;-86
2021/11/24 13:43:07;;;;;;;10.80;4.50;;;;;;;;;;4980095;28;20031;-83
2021/11/24 13:45:34;;;;;;;10.63;4.30;;;;;;;;;;4997251;28;20026;-83
2021/11/24 13:48:09;;;;;;;10.13;3.83;;;;;;;;;;4980072;28;20026;-85
2021/11/24 13:50:35;;;;;;;9.48;4.60;;;;;;;;;;4979809;28;20033;-85
2021/11/24 13:53:21;;;;;;;8.27;4.40;;;;;;;;;;4979229;28;20026;-85
2021/11/24 13:56:05;;;;;;;10.15;4.85;;;;;;;;;;4979534;28;20462;-83
2021/11/24 13:58:31;;;;;;;;;;;;;;;;;;4979837;28;20109;-85
2021/11/24 14:01:16;;;;;;;6.25;3.45;;;;;;;;;;4979090;28;20007;-85
2021/11/24 14:03:53;;;;;;;7.03;3.63;;;;;;;;;;4979105;28;20032;-85
2021/11/24 14:06:31;;;;;;;11.50;4.85;;;;;;;;;;4979162;28;20086;-87
2021/11/24 14:09:15;;;;;;;9.70;4.22;;;;;;;;;;4978640;28;20501;-86
2021/11/24 14:11:59;;;;;;;10.63;5.22;;;;;;;;;;4979591;28;20385;-86
2021/11/24 14:14:26;;;;;;;11.38;5.18;;;;;;;;;;4979536;28;20368;-86
2021/11/24 14:17:01;;;;;;;13.85;4.97;;;;;;;;;;4996151;28;20391;-86
2021/11/24 14:19:32;;;;;;;11.50;5.05;;;;;;;;;;4978604;28;20137;-86
2021/11/24 14:21:58;;;;;;;9.15;4.55;;;;;;;;;;4976495;28;20466;-89
2021/11/24 14:24:25;;;;;;;13.65;5.85;;;;;;;;;;4980909;28;20033;-86
2021/11/24 14:26:53;;;;;;;14.20;6.18;;;;;;;;;;4979215;28;20062;-87
2021/11/24 14:29:19;;;;;;;11.25;5.72;;;;;;;;;;4978826;28;20117;-84
2021/11/24 14:31:56;;;;;;;12.88;6.75;;;;;;;;;;4996344;28;20073;-83
2021/11/24 14:34:23;;;;;;;17.67;7.38;;;;;;;;;;4974829;28;20051;-84
2021/11/24 14:36:49;;;;;;;21.48;7.95;;;;;;;;;;4974914;28;20043;-83
2021/11/24 14:39:16;;;;;;;24.15;8.75;;;;;;;;;;4975183;28;20081;-83
2021/11/24 14:41:44;;;;;;;18.20;6.38;;;;;;;;;;4961379;28;20480;-83